createdAt,value
2023-02-11T00:01:46.735Z,52.67
2023-02-11T00:04:13.330Z,53.26
2023-02-11T00:06:39.993Z,54.11
2023-02-11T00:09:06.648Z,53.38
2023-02-11T00:11:33.280Z,52.63
2023-02-11T00:13:59.946Z,53.20
2023-02-11T00:16:26.692Z,53.13
2023-02-11T00:18:53.339Z,52.92
2023-02-11T00:21:20.012Z,53.52
2023-02-11T00:23:46.687Z,54.18
2023-02-11T00:26:13.390Z,53.19
2023-02-11T00:28:40.034Z,53.44
2023-02-11T00:31:06.814Z,53.12
2023-02-11T00:33:33.530Z,53.35
2023-02-11T00:36:00.224Z,52.73
2023-02-11T00:38:26.899Z,52.97
2023-02-11T00:40:53.609Z,53.50
2023-02-11T00:43:20.290Z,53.09
2023-02-11T00:45:47.127Z,52.67
2023-02-11T00:48:13.841Z,52.39
2023-02-11T00:50:40.546Z,53.03
2023-02-11T00:53:07.250Z,52.78
2023-02-11T00:55:33.856Z,53.71
2023-02-11T00:58:00.504Z,53.84
2023-02-11T01:00:27.149Z,53.90
2023-02-11T01:02:53.852Z,53.35
2023-02-11T01:05:20.598Z,53.07
2023-02-11T01:07:47.297Z,52.50
2023-02-11T01:10:13.909Z,53.79
2023-02-11T01:12:40.558Z,54.09
2023-02-11T01:15:07.247Z,54.75
2023-02-11T01:17:33.878Z,54.40
2023-02-11T01:20:00.544Z,53.21
2023-02-11T01:22:27.287Z,54.00
2023-02-11T01:24:53.928Z,53.01
2023-02-11T01:27:20.675Z,53.26
2023-02-11T01:29:47.317Z,53.14
2023-02-11T01:32:14.171Z,53.65
2023-02-11T01:34:40.904Z,54.07
2023-02-11T01:37:07.607Z,54.08
2023-02-11T01:39:34.261Z,53.76
2023-02-11T01:42:00.949Z,53.57
2023-02-11T01:44:27.622Z,54.47
2023-02-11T01:46:54.357Z,54.02
2023-02-11T01:49:21.082Z,54.67
2023-02-11T01:51:47.899Z,54.75
2023-02-11T01:54:14.558Z,54.11
2023-02-11T01:56:41.252Z,54.20
2023-02-11T01:59:07.898Z,53.97
2023-02-11T02:01:34.620Z,54.30
2023-02-11T02:04:01.361Z,54.55
2023-02-11T02:06:28.139Z,54.54
2023-02-11T02:08:54.825Z,54.50
2023-02-11T02:11:21.488Z,55.13
2023-02-11T02:13:48.167Z,53.94
2023-02-11T02:16:14.878Z,54.47
2023-02-11T02:18:41.551Z,55.12
2023-02-11T02:21:08.255Z,54.68
2023-02-11T02:23:34.937Z,54.32
2023-02-11T02:26:01.587Z,55.13
2023-02-11T02:28:28.221Z,55.15
2023-02-11T02:30:55.003Z,55.23
2023-02-11T02:33:22.616Z,55.24
2023-02-11T02:35:49.711Z,54.44
2023-02-11T02:38:16.658Z,55.09
2023-02-11T02:40:43.369Z,54.99
2023-02-11T02:43:10.096Z,55.11
2023-02-11T02:45:36.751Z,55.32
2023-02-11T02:48:03.436Z,55.68
2023-02-11T02:50:30.128Z,54.12
2023-02-11T02:52:56.928Z,54.78
2023-02-11T02:55:23.592Z,56.18
2023-02-11T02:57:50.290Z,55.21
2023-02-11T03:00:17.326Z,54.46
2023-02-11T03:02:43.983Z,55.10
2023-02-11T03:05:10.607Z,54.10
2023-02-11T03:07:37.246Z,54.62
2023-02-11T03:10:03.924Z,54.94
2023-02-11T03:12:30.547Z,54.93
2023-02-11T03:14:57.197Z,54.44
2023-02-11T03:17:23.878Z,54.54
2023-02-11T03:19:50.557Z,54.53
2023-02-11T03:22:17.290Z,54.75
2023-02-11T03:24:43.933Z,55.17
2023-02-11T03:27:10.577Z,55.10
2023-02-11T03:29:37.236Z,54.76
2023-02-11T03:32:03.893Z,55.18
2023-02-11T03:34:30.583Z,54.53
2023-02-11T03:36:57.270Z,54.54
2023-02-11T03:39:24.054Z,55.06
2023-02-11T03:41:50.767Z,54.51
2023-02-11T03:44:17.405Z,54.93
2023-02-11T03:46:44.071Z,54.78
2023-02-11T03:49:10.721Z,53.99
2023-02-11T03:51:37.369Z,54.55
2023-02-11T03:54:04.064Z,54.22
2023-02-11T03:56:30.697Z,54.99
2023-02-11T03:58:57.383Z,54.08
2023-02-11T04:01:24.202Z,54.48
2023-02-11T04:03:50.929Z,55.27
2023-02-11T04:06:17.639Z,55.51
2023-02-11T04:08:44.264Z,55.72
2023-02-11T04:11:10.988Z,55.25
2023-02-11T04:13:37.679Z,54.90
2023-02-11T04:16:04.525Z,55.31
2023-02-11T04:18:31.256Z,56.07
2023-02-11T04:20:57.880Z,55.31
2023-02-11T04:23:24.518Z,55.58
2023-02-11T04:25:51.465Z,55.19
2023-02-11T04:28:18.427Z,54.75
2023-02-11T04:30:45.154Z,55.76
2023-02-11T04:33:11.851Z,54.92
2023-02-11T04:35:38.500Z,54.95
2023-02-11T04:38:05.239Z,55.60
2023-02-11T04:40:31.892Z,54.39
2023-02-11T04:42:58.539Z,54.54
2023-02-11T04:45:25.215Z,55.10
2023-02-11T04:47:51.915Z,55.45
2023-02-11T04:50:18.612Z,54.99
2023-02-11T04:52:45.233Z,55.28
2023-02-11T04:55:11.886Z,54.87
2023-02-11T04:57:38.560Z,55.41
2023-02-11T05:00:05.266Z,55.32
2023-02-11T05:02:32.009Z,54.83
2023-02-11T05:04:58.628Z,55.04
2023-02-11T05:07:25.359Z,55.12
2023-02-11T05:09:52.035Z,54.35
2023-02-11T05:12:18.732Z,54.81
2023-02-11T05:14:45.388Z,54.75
2023-02-11T05:17:12.084Z,55.27
2023-02-11T05:19:38.772Z,55.84
2023-02-11T05:22:05.425Z,55.63
2023-02-11T05:24:32.107Z,55.76
2023-02-11T05:26:58.781Z,55.47
2023-02-11T05:29:25.456Z,54.98
2023-02-11T05:31:52.161Z,55.90
2023-02-11T05:34:18.889Z,54.92
2023-02-11T05:36:45.491Z,55.09
2023-02-11T05:39:12.175Z,54.77
2023-02-11T05:41:38.826Z,54.72
2023-02-11T05:44:05.504Z,55.09
2023-02-11T05:46:32.248Z,54.69
2023-02-11T05:48:58.947Z,55.60
2023-02-11T05:51:25.592Z,55.37
2023-02-11T05:53:52.245Z,55.65
2023-02-11T05:56:18.923Z,57.22
2023-02-11T05:58:45.578Z,57.21
2023-02-11T06:01:12.172Z,57.58
2023-02-11T06:03:38.889Z,56.67
2023-02-11T06:06:05.642Z,56.20
2023-02-11T06:08:32.284Z,56.57
2023-02-11T06:10:58.879Z,55.85
2023-02-11T06:13:25.603Z,56.43
2023-02-11T06:15:52.493Z,56.29
2023-02-11T06:18:19.318Z,56.68
2023-02-11T06:20:46.017Z,56.55
2023-02-11T06:23:12.664Z,56.45
2023-02-11T06:25:39.330Z,56.70
2023-02-11T06:28:06.096Z,56.81
2023-02-11T06:30:32.876Z,57.52
2023-02-11T06:32:59.510Z,56.96
2023-02-11T06:35:26.113Z,56.49
2023-02-11T06:37:52.735Z,55.70
2023-02-11T06:40:19.376Z,55.02
2023-02-11T06:42:46.032Z,55.38
2023-02-11T06:45:12.699Z,55.81
2023-02-11T06:47:39.342Z,55.19
2023-02-11T06:50:05.977Z,55.58
2023-02-11T06:52:32.614Z,56.00
2023-02-11T06:54:59.257Z,55.20
2023-02-11T06:57:25.998Z,55.16
2023-02-11T06:59:52.727Z,54.67
2023-02-11T07:02:20.977Z,56.02
2023-02-11T07:04:47.956Z,55.63
2023-02-11T07:07:14.635Z,54.85
2023-02-11T07:09:41.297Z,54.44
2023-02-11T07:12:07.928Z,54.27
2023-02-11T07:14:34.556Z,54.43
2023-02-11T07:17:01.176Z,55.04
2023-02-11T07:19:27.833Z,54.66
2023-02-11T07:21:54.468Z,53.86
2023-02-11T07:24:21.124Z,55.01
2023-02-11T07:26:47.807Z,54.20
2023-02-11T07:29:14.466Z,52.91
2023-02-11T07:31:41.280Z,52.88
2023-02-11T07:34:10.113Z,52.65
2023-02-11T07:36:36.791Z,53.61
2023-02-11T07:39:03.419Z,53.55
2023-02-11T07:41:30.056Z,53.06
2023-02-11T07:43:56.778Z,53.33
2023-02-11T07:46:23.484Z,53.70
2023-02-11T07:48:50.181Z,53.49
2023-02-11T07:51:16.907Z,53.31
2023-02-11T07:53:45.699Z,53.68
2023-02-11T07:56:12.350Z,53.61
2023-02-11T07:58:39.013Z,53.74
2023-02-11T08:01:05.746Z,53.47
2023-02-11T08:03:32.435Z,52.38
2023-02-11T08:05:59.072Z,51.89
2023-02-11T08:08:25.717Z,51.14
2023-02-11T08:10:52.547Z,51.87
2023-02-11T08:13:19.303Z,52.07
2023-02-11T08:15:46.062Z,51.54
2023-02-11T08:18:12.754Z,51.68
2023-02-11T08:20:39.388Z,50.95
2023-02-11T08:23:06.025Z,50.23
2023-02-11T08:25:32.701Z,49.38
2023-02-11T08:27:59.358Z,48.81
2023-02-11T08:30:27.477Z,46.83
2023-02-11T08:32:54.258Z,47.37
2023-02-11T08:35:20.954Z,47.12
2023-02-11T08:37:47.588Z,47.21
2023-02-11T08:40:14.229Z,47.93
2023-02-11T08:42:40.917Z,47.00
2023-02-11T08:45:07.565Z,44.69
2023-02-11T08:47:34.192Z,44.18
2023-02-11T08:50:00.880Z,44.04
2023-02-11T08:52:27.632Z,45.45
2023-02-11T08:54:54.334Z,43.94
2023-02-11T08:57:20.949Z,44.32
2023-02-11T08:59:47.560Z,42.31
2023-02-11T09:02:14.299Z,42.63
2023-02-11T09:04:40.953Z,42.34
2023-02-11T09:07:07.673Z,42.66
2023-02-11T09:09:34.309Z,42.49
2023-02-11T09:12:00.949Z,42.73
2023-02-11T09:14:27.558Z,41.23
2023-02-11T09:16:54.251Z,42.46
2023-02-11T09:19:21.061Z,42.00
2023-02-11T09:21:47.791Z,42.01
2023-02-11T09:24:14.497Z,42.61
2023-02-11T09:26:41.138Z,43.55
2023-02-11T09:29:07.831Z,45.35
2023-02-11T09:31:34.626Z,43.70
2023-02-11T09:34:01.393Z,42.80
2023-02-11T09:36:28.047Z,42.69
2023-02-11T09:38:54.756Z,42.95
2023-02-11T09:41:21.398Z,41.54
2023-02-11T09:43:48.159Z,41.36
2023-02-11T09:46:14.897Z,41.57
2023-02-11T09:48:41.592Z,41.44
2023-02-11T09:51:08.264Z,41.25
2023-02-11T09:53:34.934Z,41.14
2023-02-11T09:56:01.634Z,42.20
2023-02-11T09:58:28.294Z,41.71
2023-02-11T10:00:54.988Z,41.64
2023-02-11T10:03:21.657Z,42.57
2023-02-11T10:05:48.800Z,43.11
2023-02-11T10:08:17.015Z,42.81
2023-02-11T10:10:43.825Z,42.09
2023-02-11T10:13:10.530Z,41.24
2023-02-11T10:15:37.190Z,41.36
2023-02-11T10:18:03.932Z,41.04
2023-02-11T10:20:30.604Z,40.63
2023-02-11T10:22:57.267Z,43.29
2023-02-11T10:25:23.893Z,44.46
2023-02-11T10:27:50.564Z,43.01
2023-02-11T10:30:17.229Z,41.63
2023-02-11T10:32:43.910Z,40.92
2023-02-11T10:35:10.616Z,41.41
2023-02-11T10:37:37.317Z,41.94
2023-02-11T10:40:03.988Z,40.37
2023-02-11T10:42:30.646Z,40.43
2023-02-11T10:44:57.412Z,40.94
2023-02-11T10:47:24.056Z,39.84
2023-02-11T10:49:50.797Z,41.02
2023-02-11T10:52:17.492Z,40.05
2023-02-11T10:54:44.111Z,37.75
2023-02-11T10:57:10.775Z,38.09
2023-02-11T10:59:37.456Z,37.40
2023-02-11T11:02:04.172Z,37.35
2023-02-11T11:04:30.942Z,37.30
2023-02-11T11:06:57.682Z,35.27
2023-02-11T11:09:24.352Z,37.75
2023-02-11T11:11:51.054Z,36.26
2023-02-11T11:14:17.778Z,37.88
2023-02-11T11:16:44.400Z,36.75
2023-02-11T11:19:11.122Z,35.81
2023-02-11T11:21:37.763Z,37.48
2023-02-11T11:24:04.443Z,36.58
2023-02-11T11:26:31.184Z,37.14
2023-02-11T11:28:57.804Z,37.43
2023-02-11T11:31:24.764Z,36.98
2023-02-11T11:33:51.432Z,37.02
2023-02-11T11:36:18.050Z,39.42
2023-02-11T11:38:44.694Z,39.86
2023-02-11T11:41:11.335Z,39.06
2023-02-11T11:43:38.035Z,38.35
2023-02-11T11:46:04.704Z,37.24
2023-02-11T11:48:31.436Z,38.02
2023-02-11T11:50:58.093Z,38.94
2023-02-11T11:53:24.835Z,38.56
2023-02-11T11:55:51.506Z,38.42
2023-02-11T11:58:18.200Z,38.89
2023-02-11T12:00:44.821Z,39.28
2023-02-11T12:03:11.613Z,37.67
2023-02-11T12:05:38.378Z,36.64
2023-02-11T12:08:05.055Z,34.96
2023-02-11T12:10:31.731Z,36.27
2023-02-11T12:12:58.371Z,36.05
2023-02-11T12:15:25.021Z,36.75
2023-02-11T12:17:51.705Z,36.21
2023-02-11T12:20:18.366Z,35.31
2023-02-11T12:22:45.174Z,34.94
2023-02-11T12:25:11.841Z,34.76
2023-02-11T12:27:38.497Z,33.50
2023-02-11T12:30:05.211Z,33.55
2023-02-11T12:32:31.898Z,35.63
2023-02-11T12:34:58.563Z,35.99
2023-02-11T12:37:25.246Z,36.47
2023-02-11T12:39:51.896Z,35.25
2023-02-11T12:42:18.557Z,35.05
2023-02-11T12:44:45.337Z,35.29
2023-02-11T12:47:12.004Z,34.86
2023-02-11T12:49:38.748Z,34.01
2023-02-11T12:52:05.394Z,34.80
2023-02-11T12:54:32.096Z,34.10
2023-02-11T12:56:58.746Z,34.20
2023-02-11T12:59:25.429Z,33.76
2023-02-11T13:01:52.124Z,32.13
2023-02-11T13:04:18.761Z,33.23
2023-02-11T13:06:45.380Z,34.89
2023-02-11T13:09:12.046Z,33.62
2023-02-11T13:11:38.736Z,33.55
2023-02-11T13:14:05.487Z,32.92
2023-02-11T13:16:32.191Z,32.07
2023-02-11T13:18:58.949Z,32.78
2023-02-11T13:21:25.605Z,33.18
2023-02-11T13:23:52.314Z,33.13
2023-02-11T13:26:19.018Z,33.57
2023-02-11T13:28:45.705Z,32.28
2023-02-11T13:31:12.589Z,33.23
2023-02-11T13:33:39.396Z,33.61
2023-02-11T13:36:06.142Z,31.54
2023-02-11T13:38:32.835Z,30.34
2023-02-11T13:40:59.535Z,31.48
2023-02-11T13:43:26.204Z,31.75
2023-02-11T13:45:52.937Z,32.61
2023-02-11T13:48:19.755Z,32.24
2023-02-11T13:50:46.547Z,32.12
2023-02-11T13:53:15.926Z,31.41
2023-02-11T13:55:42.723Z,32.42
2023-02-11T13:58:09.398Z,31.85
2023-02-11T14:00:36.119Z,31.30
2023-02-11T14:03:02.756Z,31.55
2023-02-11T14:05:29.398Z,30.71
2023-02-11T14:07:55.989Z,31.33
2023-02-11T14:10:22.790Z,31.30
2023-02-11T14:12:49.523Z,31.16
2023-02-11T14:15:16.241Z,32.29
2023-02-11T14:17:42.912Z,31.64
2023-02-11T14:20:09.535Z,31.77
2023-02-11T14:22:36.181Z,31.61
2023-02-11T14:25:02.823Z,31.26
2023-02-11T14:27:29.480Z,31.22
2023-02-11T14:29:56.129Z,31.52
2023-02-11T14:32:23.057Z,31.39
2023-02-11T14:34:49.664Z,31.15
2023-02-11T14:37:16.453Z,31.48
2023-02-11T14:39:43.106Z,31.79
2023-02-11T14:42:09.740Z,31.49
2023-02-11T14:44:36.408Z,31.21
2023-02-11T14:47:03.106Z,31.22
2023-02-11T14:49:29.735Z,31.12
2023-02-11T14:51:56.448Z,31.03
2023-02-11T14:54:23.060Z,31.26
2023-02-11T14:56:49.699Z,31.28
2023-02-11T14:59:16.416Z,31.16
2023-02-11T15:01:43.148Z,31.61
2023-02-11T15:04:09.816Z,31.45
2023-02-11T15:06:36.515Z,31.37
2023-02-11T15:09:03.132Z,31.18
2023-02-11T15:11:29.753Z,31.17
2023-02-11T15:13:56.408Z,30.54
2023-02-11T15:16:23.161Z,31.15
2023-02-11T15:18:49.970Z,31.43
2023-02-11T15:21:16.589Z,31.58
2023-02-11T15:23:43.381Z,31.32
2023-02-11T15:26:10.005Z,31.43
2023-02-11T15:28:36.797Z,30.85
2023-02-11T15:31:03.616Z,32.25
2023-02-11T15:33:30.322Z,31.76
2023-02-11T15:35:57.010Z,31.82
2023-02-11T15:38:23.730Z,32.30
2023-02-11T15:40:50.650Z,31.67
2023-02-11T15:43:17.470Z,32.08
2023-02-11T15:45:44.125Z,32.78
2023-02-11T15:48:10.754Z,33.31
2023-02-11T15:50:37.407Z,32.57
2023-02-11T15:53:04.236Z,32.55
2023-02-11T15:55:30.899Z,32.84
2023-02-11T15:57:57.569Z,33.75
2023-02-11T16:00:24.267Z,33.79
2023-02-11T16:02:50.960Z,33.69
2023-02-11T16:05:17.729Z,33.39
2023-02-11T16:07:44.432Z,33.38
2023-02-11T16:10:11.112Z,34.29
2023-02-11T16:12:37.794Z,35.51
2023-02-11T16:15:04.489Z,34.47
2023-02-11T16:17:31.266Z,34.34
2023-02-11T16:19:57.918Z,33.94
2023-02-11T16:22:24.563Z,34.39
2023-02-11T16:24:51.325Z,34.80
2023-02-11T16:27:17.950Z,35.35
2023-02-11T16:29:44.614Z,35.33
2023-02-11T16:32:11.222Z,35.16
2023-02-11T16:34:37.916Z,35.77
2023-02-11T16:37:04.561Z,36.21
2023-02-11T16:39:31.239Z,36.70
2023-02-11T16:41:57.893Z,37.43
2023-02-11T16:44:24.485Z,37.32
2023-02-11T16:46:51.256Z,38.36
2023-02-11T16:49:17.942Z,39.07
2023-02-11T16:51:44.590Z,39.03
2023-02-11T16:54:13.153Z,38.63
2023-02-11T16:56:39.821Z,38.93
2023-02-11T16:59:06.513Z,38.94
2023-02-11T17:01:33.209Z,39.84
2023-02-11T17:03:59.905Z,39.70
2023-02-11T17:06:26.589Z,39.49
2023-02-11T17:08:53.212Z,39.64
2023-02-11T17:11:19.884Z,39.83
2023-02-11T17:13:46.547Z,40.16
2023-02-11T17:16:13.303Z,40.58
2023-02-11T17:18:39.956Z,40.69
2023-02-11T17:21:06.639Z,40.73
2023-02-11T17:23:33.303Z,40.64
2023-02-11T17:25:59.964Z,40.82
2023-02-11T17:28:26.663Z,40.85
2023-02-11T17:30:53.335Z,40.95
2023-02-11T17:33:19.980Z,40.85
2023-02-11T17:35:46.583Z,40.96
2023-02-11T17:38:13.263Z,40.40
2023-02-11T17:40:39.965Z,40.62
2023-02-11T17:43:06.594Z,40.87
2023-02-11T17:45:33.312Z,41.21
2023-02-11T17:47:59.990Z,42.07
2023-02-11T17:50:29.174Z,42.98
2023-02-11T17:52:56.183Z,43.20
2023-02-11T17:55:22.884Z,42.95
2023-02-11T17:57:49.501Z,42.73
2023-02-11T18:00:16.210Z,42.62
2023-02-11T18:02:42.932Z,43.46
2023-02-11T18:05:09.602Z,42.76
2023-02-11T18:07:36.217Z,43.04
2023-02-11T18:10:02.865Z,43.30
2023-02-11T18:12:29.611Z,42.97
2023-02-11T18:14:58.056Z,43.41
2023-02-11T18:17:24.976Z,43.56
2023-02-11T18:19:51.672Z,43.41
2023-02-11T18:22:18.342Z,43.39
2023-02-11T18:24:44.955Z,43.27
2023-02-11T18:27:11.638Z,42.87
2023-02-11T18:29:38.377Z,43.24
2023-02-11T18:32:05.129Z,43.16
2023-02-11T18:34:31.859Z,43.23
2023-02-11T18:36:58.453Z,44.54
2023-02-11T18:39:25.172Z,44.74
2023-02-11T18:41:51.812Z,44.00
2023-02-11T18:44:18.471Z,44.96
2023-02-11T18:46:45.178Z,44.66
2023-02-11T18:49:11.860Z,45.95
2023-02-11T18:51:38.474Z,45.11
2023-02-11T18:54:05.162Z,46.27
2023-02-11T18:56:31.872Z,45.96
2023-02-11T18:58:58.559Z,46.25
2023-02-11T19:01:28.579Z,46.30
2023-02-11T19:03:58.507Z,45.90
2023-02-11T19:06:25.410Z,45.88
2023-02-11T19:08:52.057Z,45.71
2023-02-11T19:11:18.751Z,45.86
2023-02-11T19:13:45.397Z,45.64
2023-02-11T19:16:12.082Z,45.84
2023-02-11T19:18:38.866Z,46.48
2023-02-11T19:21:05.589Z,45.94
2023-02-11T19:23:32.229Z,45.54
2023-02-11T19:25:58.942Z,45.56
2023-02-11T19:28:25.646Z,45.28
2023-02-11T19:30:52.450Z,46.59
2023-02-11T19:33:19.199Z,46.61
2023-02-11T19:35:45.860Z,46.42
2023-02-11T19:38:12.545Z,46.82
2023-02-11T19:40:39.216Z,46.67
2023-02-11T19:43:05.830Z,45.48
2023-02-11T19:45:32.528Z,44.88
2023-02-11T19:47:59.249Z,45.55
2023-02-11T19:50:25.873Z,46.82
2023-02-11T19:52:52.471Z,46.21
2023-02-11T19:55:19.135Z,47.38
2023-02-11T19:57:45.786Z,46.10
2023-02-11T20:00:12.399Z,46.75
2023-02-11T20:02:39.043Z,45.87
2023-02-11T20:05:05.774Z,46.68
2023-02-11T20:07:32.384Z,47.96
2023-02-11T20:09:59.076Z,47.32
2023-02-11T20:12:25.729Z,49.05
2023-02-11T20:14:52.399Z,48.72
2023-02-11T20:17:19.112Z,48.46
2023-02-11T20:19:45.727Z,47.48
2023-02-11T20:22:12.408Z,47.78
2023-02-11T20:24:39.073Z,48.47
2023-02-11T20:27:05.683Z,47.67
2023-02-11T20:29:32.378Z,47.99
2023-02-11T20:31:59.157Z,47.27
2023-02-11T20:34:25.931Z,48.52
2023-02-11T20:36:52.648Z,49.57
2023-02-11T20:39:19.348Z,49.21
2023-02-11T20:41:46.107Z,49.26
2023-02-11T20:44:12.979Z,48.36
2023-02-11T20:46:39.735Z,48.62
2023-02-11T20:49:06.414Z,48.70
2023-02-11T20:51:33.090Z,48.84
2023-02-11T20:53:59.794Z,49.32
2023-02-11T20:56:26.530Z,49.25
2023-02-11T20:58:53.212Z,49.09
2023-02-11T21:01:19.889Z,48.82
2023-02-11T21:03:46.550Z,49.51
2023-02-11T21:06:13.230Z,49.11
2023-02-11T21:08:39.873Z,49.57
2023-02-11T21:11:06.498Z,49.72
2023-02-11T21:13:33.180Z,50.18
2023-02-11T21:15:59.891Z,51.41
2023-02-11T21:18:26.977Z,49.84
2023-02-11T21:20:53.686Z,50.99
2023-02-11T21:23:20.357Z,50.83
2023-02-11T21:25:46.998Z,50.82
2023-02-11T21:28:13.726Z,50.91
2023-02-11T21:30:40.453Z,49.70
2023-02-11T21:33:07.120Z,50.69
2023-02-11T21:35:33.802Z,49.77
2023-02-11T21:38:00.474Z,50.41
2023-02-11T21:40:27.109Z,50.53
2023-02-11T21:42:53.736Z,50.62
2023-02-11T21:45:20.428Z,51.17
2023-02-11T21:47:47.069Z,51.83
2023-02-11T21:50:13.742Z,51.15
2023-02-11T21:52:40.385Z,51.00
2023-02-11T21:55:07.077Z,49.96
2023-02-11T21:57:33.736Z,50.91
2023-02-11T22:00:00.408Z,50.96
2023-02-11T22:02:27.131Z,50.68
2023-02-11T22:04:53.862Z,51.20
2023-02-11T22:07:20.508Z,51.83
2023-02-11T22:09:47.108Z,51.28
2023-02-11T22:12:13.771Z,50.99
2023-02-11T22:14:40.451Z,51.82
2023-02-11T22:17:07.180Z,50.82
2023-02-11T22:19:33.869Z,51.02
2023-02-11T22:22:00.574Z,51.69
2023-02-11T22:24:27.206Z,51.80
2023-02-11T22:26:53.840Z,52.22
2023-02-11T22:29:20.468Z,51.19
2023-02-11T22:31:47.135Z,51.64
2023-02-11T22:34:13.831Z,51.46
2023-02-11T22:36:40.445Z,51.99
2023-02-11T22:39:07.095Z,51.27
2023-02-11T22:41:33.747Z,51.24
2023-02-11T22:44:00.381Z,51.82
2023-02-11T22:46:27.083Z,51.62
2023-02-11T22:48:53.804Z,52.24
2023-02-11T22:51:20.433Z,51.41
2023-02-11T22:53:47.076Z,51.66
2023-02-11T22:56:15.691Z,51.47
2023-02-11T22:58:42.617Z,51.49
2023-02-11T23:01:09.259Z,51.03
2023-02-11T23:03:35.964Z,52.31
2023-02-11T23:06:02.607Z,51.99
2023-02-11T23:08:29.240Z,52.17
2023-02-11T23:10:55.920Z,51.68
2023-02-11T23:13:22.561Z,50.78
2023-02-11T23:15:49.208Z,52.31
2023-02-11T23:18:15.854Z,52.62
2023-02-11T23:20:42.469Z,52.59
2023-02-11T23:23:09.135Z,51.75
2023-02-11T23:25:35.817Z,51.22
2023-02-11T23:28:02.564Z,51.49
2023-02-11T23:30:29.249Z,52.87
2023-02-11T23:32:56.016Z,52.16
2023-02-11T23:35:22.682Z,52.46
2023-02-11T23:37:49.389Z,51.77
2023-02-11T23:40:16.066Z,51.30
2023-02-11T23:42:42.702Z,51.53
2023-02-11T23:45:09.372Z,51.44
2023-02-11T23:47:36.045Z,52.19
2023-02-11T23:50:02.685Z,50.80
2023-02-11T23:52:29.278Z,50.96
2023-02-11T23:54:55.966Z,51.49
2023-02-11T23:57:22.611Z,50.70
2023-02-11T23:59:49.232Z,51.14
